Terminal Aerodrome Forecast
Issued by NWS

Home | Current Version | Previous Version | Text Only | Print | Product List | Glossary On
Versions: 1 2 3 4 5 6 7 8 9 10 11 12 13 14 15 16 17 18 19 20 21 22 23
000
FTUS41 KPBZ 050346 AAB
TAFZZV
TAF AMD
KZZV 050346Z 0504/0524 26006KT P6SM -SHRA OVC025
     FM050900 31005KT 2SM BR OVC015
     FM051600 33007KT P6SM OVC025
     FM051700 33007KT P6SM VCSH OVC035=

USA.gov is the U.S. government's official web portal to all federal, state and local government web resources and services.